Time;durP1;ratioP1;P1;durP2;ratioP2;P2;SDS_P1;SDS_P2;PMS_P1;PMS_P2;Temp;Humidity;BMP_temperature;BMP_pressure;BME280_temperature;BME280_humidity;BME280_pressure;Samples;Min_cycle;Max_cycle;Signal;HPM_P1;HPM_P2
2021/03/14 00:00:09;;;;;;;1.25;0.25;;;4.20;99.90;;;;;;5036649;28;20065;-78
2021/03/14 00:02:35;;;;;;;0.28;0.25;;;4.20;99.90;;;;;;5030952;28;20409;-77
2021/03/14 00:05:02;;;;;;;8.35;0.50;;;4.20;99.90;;;;;;5031222;28;20082;-78
2021/03/14 00:07:27;;;;;;;1.20;0.40;;;4.20;99.90;;;;;;5030458;28;20045;-78
2021/03/14 00:09:53;;;;;;;3.47;0.50;;;4.20;99.90;;;;;;5031661;28;20032;-77
2021/03/14 00:12:18;;;;;;;1.40;0.60;;;4.20;99.90;;;;;;5029729;28;20038;-75
2021/03/14 00:14:44;;;;;;;3.55;0.68;;;4.20;99.90;;;;;;5031232;28;20037;-77
2021/03/14 00:17:10;;;;;;;3.08;0.40;;;4.20;99.90;;;;;;5027864;28;20555;-77
2021/03/14 00:19:35;;;;;;;1.70;0.50;;;4.20;99.90;;;;;;5030552;28;20442;-76
2021/03/14 00:22:01;;;;;;;4.72;0.45;;;4.30;99.90;;;;;;5029700;28;20072;-77
2021/03/14 00:24:26;;;;;;;2.85;0.38;;;4.40;99.90;;;;;;5031784;28;20040;-76
2021/03/14 00:26:52;;;;;;;1.45;0.60;;;4.30;99.90;;;;;;5029387;28;20033;-77
2021/03/14 00:29:17;;;;;;;1.95;0.60;;;4.30;99.90;;;;;;5032187;28;20037;-76
2021/03/14 00:31:43;;;;;;;0.60;0.30;;;4.30;99.90;;;;;;5031902;28;20037;-76
2021/03/14 00:34:08;;;;;;;1.80;0.50;;;4.30;99.90;;;;;;5031577;28;20048;-75
2021/03/14 00:36:34;;;;;;;0.75;0.40;;;4.30;99.90;;;;;;5030503;28;20151;-76
2021/03/14 00:38:59;;;;;;;3.63;0.60;;;4.20;99.90;;;;;;5031983;28;20206;-75
2021/03/14 00:41:25;;;;;;;2.40;0.55;;;4.20;99.90;;;;;;5030099;28;20029;-76
2021/03/14 00:43:51;;;;;;;1.13;0.45;;;4.20;99.90;;;;;;5030454;28;20068;-76
2021/03/14 00:46:16;;;;;;;1.08;0.32;;;4.10;99.90;;;;;;5035753;28;20048;-76
2021/03/14 00:48:42;;;;;;;1.00;0.47;;;4.20;99.90;;;;;;5029052;28;20462;-76
2021/03/14 00:51:07;;;;;;;1.98;0.38;;;4.10;99.90;;;;;;5028710;28;20041;-76
2021/03/14 00:53:33;;;;;;;1.95;0.63;;;4.10;99.90;;;;;;5035474;28;20566;-76
2021/03/14 00:55:58;;;;;;;4.72;0.63;;;4.10;99.90;;;;;;5028780;28;20056;-76
2021/03/14 00:58:24;;;;;;;1.83;0.68;;;4.10;99.90;;;;;;5030798;28;20041;-76
2021/03/14 01:00:50;;;;;;;4.10;0.40;;;4.00;99.90;;;;;;5033626;28;20033;-76
2021/03/14 01:03:15;;;;;;;0.50;0.30;;;3.90;99.90;;;;;;5032762;28;20354;-76
2021/03/14 01:05:41;;;;;;;2.65;0.68;;;3.90;99.90;;;;;;5033625;28;20030;-76
2021/03/14 01:08:07;;;;;;;1.88;0.50;;;3.90;99.90;;;;;;5039289;28;20051;-76
2021/03/14 01:10:32;;;;;;;2.25;0.47;;;3.90;99.90;;;;;;5031364;28;20526;-77
2021/03/14 01:12:58;;;;;;;1.80;1.15;;;3.90;99.90;;;;;;5036892;28;20072;-77
2021/03/14 01:15:24;;;;;;;0.68;0.30;;;3.80;99.90;;;;;;5034017;28;20032;-77
2021/03/14 01:17:49;;;;;;;4.88;0.47;;;3.80;99.90;;;;;;5033418;28;20038;-77
2021/03/14 01:20:18;;;;;;;0.28;0.20;;;3.80;99.90;;;;;;5028498;28;20037;-77
2021/03/14 01:22:43;;;;;;;0.80;0.40;;;3.80;99.90;;;;;;5029497;28;20061;-77
2021/03/14 01:25:10;;;;;;;2.42;0.85;;;3.70;99.90;;;;;;5028905;28;20588;-77
2021/03/14 01:27:36;;;;;;;0.80;0.50;;;3.70;99.90;;;;;;5028353;28;20119;-77
2021/03/14 01:30:04;;;;;;;0.88;0.52;;;3.70;99.90;;;;;;5030001;28;20025;-78
2021/03/14 01:32:30;;;;;;;3.58;0.35;;;3.70;99.90;;;;;;5028676;28;20069;-78
2021/03/14 01:34:55;;;;;;;0.45;0.40;;;3.70;99.90;;;;;;5023107;28;20111;-78
2021/03/14 01:37:21;;;;;;;1.15;0.43;;;3.70;99.90;;;;;;5030673;28;20116;-77
2021/03/14 01:39:47;;;;;;;1.42;0.40;;;3.70;99.90;;;;;;5030680;28;20037;-78
2021/03/14 01:42:13;;;;;;;0.55;0.40;;;3.70;99.90;;;;;;5028061;28;20030;-77
2021/03/14 01:44:45;;;;;;;4.55;0.30;;;3.70;99.90;;;;;;5031483;28;20037;-78
2021/03/14 01:47:11;;;;;;;2.20;0.57;;;3.70;99.90;;;;;;5029726;28;20116;-78
2021/03/14 01:49:38;;;;;;;0.82;0.60;;;3.70;99.90;;;;;;5027714;28;20594;-79
2021/03/14 01:52:04;;;;;;;1.25;0.40;;;3.70;99.90;;;;;;5033709;28;20128;-77
2021/03/14 01:54:30;;;;;;;0.63;0.35;;;3.80;99.90;;;;;;5032940;28;20041;-77
2021/03/14 01:56:55;;;;;;;0.32;0.20;;;3.70;99.90;;;;;;5028866;28;20037;-78
2021/03/14 01:59:21;;;;;;;0.82;0.45;;;3.70;99.90;;;;;;5026436;28;20565;-77
2021/03/14 02:01:47;;;;;;;3.13;0.35;;;3.70;99.90;;;;;;5029923;28;20095;-77
2021/03/14 02:04:12;;;;;;;0.90;0.28;;;3.70;99.90;;;;;;5030245;28;20398;-77
2021/03/14 02:06:38;;;;;;;0.50;0.30;;;3.70;99.90;;;;;;5036727;28;20037;-78
2021/03/14 02:09:04;;;;;;;2.97;0.50;;;3.70;99.90;;;;;;5031435;28;20045;-78
2021/03/14 02:11:35;;;;;;;0.20;0.20;;;3.70;99.90;;;;;;5032274;28;20036;-78
2021/03/14 02:14:02;;;;;;;0.35;0.20;;;3.70;99.90;;;;;;5023175;28;20479;-78
2021/03/14 02:16:35;;;;;;;1.65;0.38;;;3.70;99.90;;;;;;5027699;28;20076;-78
2021/03/14 02:19:04;;;;;;;1.45;0.28;;;3.70;99.90;;;;;;5030102;28;20137;-78
2021/03/14 02:21:32;;;;;;;0.32;0.20;;;3.70;99.90;;;;;;5029269;28;20049;-77
2021/03/14 02:24:23;;;;;;;0.30;0.22;;;3.80;99.90;;;;;;5032288;28;20038;-78
2021/03/14 02:27:16;;;;;;;0.45;0.30;;;3.70;99.90;;;;;;5029963;28;20041;-77
2021/03/14 02:29:42;;;;;;;0.45;0.32;;;3.70;99.90;;;;;;5031188;28;20448;-77
2021/03/14 02:32:10;;;;;;;1.15;0.45;;;3.70;99.90;;;;;;5029112;28;20049;-78
2021/03/14 02:34:41;;;;;;;2.92;0.40;;;3.70;99.90;;;;;;5034363;28;20048;-77
2021/03/14 02:37:08;;;;;;;1.52;0.50;;;3.70;99.90;;;;;;5030178;28;20037;-77
2021/03/14 02:39:36;;;;;;;3.22;0.60;;;3.70;99.90;;;;;;5030882;28;20041;-77
2021/03/14 02:42:06;;;;;;;1.45;0.50;;;3.70;99.90;;;;;;5030063;28;20033;-77
2021/03/14 02:44:46;;;;;;;1.13;0.50;;;3.60;99.90;;;;;;5033103;28;20048;-77
2021/03/14 02:47:12;;;;;;;1.98;0.60;;;3.60;99.90;;;;;;5029802;28;20421;-77
2021/03/14 02:49:38;;;;;;;2.72;0.60;;;3.60;99.90;;;;;;5033564;28;21543;-77
2021/03/14 02:52:05;;;;;;;0.80;0.35;;;3.60;99.90;;;;;;5029622;28;20039;-77
2021/03/14 02:54:33;;;;;;;6.63;0.98;;;3.60;99.90;;;;;;5028970;28;20136;-77
2021/03/14 02:56:59;;;;;;;2.00;0.70;;;3.60;99.90;;;;;;5030752;28;20628;-77
2021/03/14 02:59:24;;;;;;;3.08;0.60;;;3.60;99.90;;;;;;5033613;28;20041;-77
2021/03/14 03:01:51;;;;;;;2.28;1.00;;;3.60;99.90;;;;;;5031029;28;20072;-77
2021/03/14 03:04:18;;;;;;;7.45;1.23;;;3.60;99.90;;;;;;5037207;28;20526;-78
2021/03/14 03:06:45;;;;;;;3.05;0.68;;;3.60;99.90;;;;;;5027498;28;20441;-77
2021/03/14 03:09:13;;;;;;;5.78;0.75;;;3.60;99.90;;;;;;5029884;28;20414;-77
2021/03/14 03:11:40;;;;;;;1.27;0.90;;;3.60;99.90;;;;;;5032371;28;20540;-78
2021/03/14 03:14:07;;;;;;;5.07;0.98;;;3.50;99.90;;;;;;5034837;28;20033;-76
2021/03/14 03:16:33;;;;;;;2.25;0.50;;;3.50;99.90;;;;;;5033809;28;20410;-76
2021/03/14 03:18:59;;;;;;;1.52;0.82;;;3.50;99.90;;;;;;5029918;28;20038;-76
2021/03/14 03:21:26;;;;;;;2.20;0.77;;;3.50;99.90;;;;;;5029559;28;20037;-76
2021/03/14 03:23:52;;;;;;;0.85;0.80;;;3.40;99.90;;;;;;5034277;28;20509;-76
2021/03/14 03:26:17;;;;;;;3.60;0.90;;;3.40;99.90;;;;;;5035544;28;20053;-76
2021/03/14 03:28:44;;;;;;;2.80;0.88;;;3.40;99.90;;;;;;5036359;28;20037;-76
2021/03/14 03:31:10;;;;;;;2.60;0.68;;;3.40;99.90;;;;;;5030846;28;20041;-76
2021/03/14 03:33:36;;;;;;;2.60;0.75;;;3.40;99.90;;;;;;5026760;28;20049;-77
2021/03/14 03:36:03;;;;;;;2.28;0.70;;;3.50;99.90;;;;;;5028909;28;20567;-76
2021/03/14 03:38:31;;;;;;;0.70;0.60;;;3.50;99.90;;;;;;5032665;28;20034;-76
2021/03/14 03:40:57;;;;;;;6.00;0.73;;;3.50;99.90;;;;;;5027951;28;20056;-76
2021/03/14 03:43:27;;;;;;;3.28;0.68;;;3.40;99.90;;;;;;5026507;28;20025;-76
2021/03/14 03:45:56;;;;;;;0.90;0.60;;;3.50;99.90;;;;;;5025183;28;20037;-77
2021/03/14 03:48:50;;;;;;;0.57;0.50;;;3.40;99.90;;;;;;5028099;28;20033;-77
2021/03/14 03:51:21;;;;;;;1.38;0.60;;;3.40;99.90;;;;;;5027105;28;20537;-77
2021/03/14 03:53:48;;;;;;;2.05;1.00;;;3.40;99.90;;;;;;5030362;28;20347;-77
2021/03/14 03:56:14;;;;;;;1.10;0.52;;;3.40;99.90;;;;;;5036518;28;20108;-76
2021/03/14 03:58:41;;;;;;;3.40;0.68;;;3.40;99.90;;;;;;5030105;28;20087;-77
2021/03/14 04:01:10;;;;;;;1.27;0.80;;;3.40;99.90;;;;;;5029845;28;20131;-77
2021/03/14 04:03:41;;;;;;;1.00;0.57;;;3.40;99.90;;;;;;5033127;28;20502;-77
2021/03/14 04:06:08;;;;;;;1.95;0.80;;;3.40;99.90;;;;;;5026768;28;20079;-77
2021/03/14 04:08:35;;;;;;;2.10;1.00;;;3.40;99.90;;;;;;5030112;28;20045;-77
2021/03/14 04:11:10;;;;;;;2.50;1.50;;;3.40;99.90;;;;;;5028375;28;20144;-77
2021/03/14 04:13:37;;;;;;;3.45;0.90;;;3.40;99.90;;;;;;5030408;28;20402;-77
2021/03/14 04:16:03;;;;;;;3.70;0.73;;;3.40;99.90;;;;;;5033938;28;20053;-77
2021/03/14 04:18:31;;;;;;;3.38;0.82;;;3.40;99.90;;;;;;5027860;28;20082;-77
2021/03/14 04:20:59;;;;;;;1.58;0.70;;;3.40;99.90;;;;;;5029189;28;20200;-77
2021/03/14 04:23:26;;;;;;;4.13;1.27;;;3.40;99.90;;;;;;5034744;28;20029;-77
2021/03/14 04:25:55;;;;;;;3.15;0.80;;;3.30;99.90;;;;;;5026952;28;20554;-77
2021/03/14 04:28:22;;;;;;;1.85;0.73;;;3.30;99.90;;;;;;5027970;28;20084;-76
2021/03/14 04:30:49;;;;;;;2.95;0.70;;;3.40;99.90;;;;;;5028360;28;20483;-77
2021/03/14 04:33:17;;;;;;;3.28;0.75;;;3.30;99.90;;;;;;5026404;28;20414;-77
2021/03/14 04:35:43;;;;;;;2.25;0.82;;;3.40;99.90;;;;;;5027378;28;20042;-76
2021/03/14 04:38:09;;;;;;;2.05;1.05;;;3.40;99.90;;;;;;5022765;28;20037;-77
2021/03/14 04:40:35;;;;;;;1.38;0.63;;;3.40;99.90;;;;;;5029769;28;20647;-77
2021/03/14 04:43:03;;;;;;;3.13;0.88;;;3.50;99.90;;;;;;5027494;28;20101;-77
2021/03/14 04:45:29;;;;;;;2.03;0.80;;;3.50;99.90;;;;;;5031017;28;20037;-77
2021/03/14 04:47:54;;;;;;;4.40;0.90;;;3.40;99.90;;;;;;5030845;28;20030;-77
2021/03/14 04:50:24;;;;;;;1.48;0.73;;;3.40;99.90;;;;;;5009117;28;20090;-77
2021/03/14 04:52:52;;;;;;;4.22;0.80;;;3.40;99.90;;;;;;5028738;28;20091;-77
2021/03/14 04:55:18;;;;;;;2.38;0.45;;;3.50;99.90;;;;;;5032772;28;20060;-78
2021/03/14 04:57:48;;;;;;;4.55;0.68;;;3.40;99.90;;;;;;5005419;28;20035;-78
2021/03/14 05:00:15;;;;;;;4.63;0.98;;;3.40;99.90;;;;;;5001741;28;20116;-77
2021/03/14 05:02:44;;;;;;;1.48;0.57;;;3.40;99.90;;;;;;5041292;28;20117;-77
2021/03/14 05:05:12;;;;;;;7.72;1.00;;;3.40;99.90;;;;;;5027702;28;20037;-77
2021/03/14 05:07:40;;;;;;;3.65;0.82;;;3.40;99.90;;;;;;5008584;28;20040;-77
2021/03/14 05:10:07;;;;;;;2.28;0.95;;;3.30;99.90;;;;;;5027494;28;20284;-78
2021/03/14 05:12:34;;;;;;;0.70;0.65;;;3.30;99.90;;;;;;5027937;28;20065;-76
2021/03/14 05:15:00;;;;;;;7.18;0.77;;;3.30;99.90;;;;;;5029363;28;20112;-78
2021/03/14 05:17:26;;;;;;;2.45;0.88;;;3.30;99.90;;;;;;5018399;28;20117;-78
2021/03/14 05:19:52;;;;;;;2.67;1.00;;;3.20;99.90;;;;;;5025094;28;20032;-78
2021/03/14 05:22:21;;;;;;;5.55;1.05;;;3.30;99.90;;;;;;5026653;28;20029;-77
2021/03/14 05:24:49;;;;;;;7.07;0.82;;;3.20;99.90;;;;;;5024544;28;20087;-78
2021/03/14 05:27:17;;;;;;;9.65;0.90;;;3.20;99.90;;;;;;5023601;28;20576;-78
2021/03/14 05:29:45;;;;;;;3.80;0.73;;;3.20;99.90;;;;;;5027078;28;20047;-78
2021/03/14 05:32:11;;;;;;;8.48;1.00;;;3.10;99.90;;;;;;5031809;28;20029;-78
2021/03/14 05:34:36;;;;;;;5.80;0.80;;;3.10;99.90;;;;;;5021055;28;20079;-77
2021/03/14 05:37:02;;;;;;;2.38;0.68;;;3.10;99.90;;;;;;5018458;28;20277;-78
2021/03/14 05:39:27;;;;;;;6.75;1.00;;;3.00;99.90;;;;;;5016880;28;20041;-77
2021/03/14 05:41:53;;;;;;;4.30;0.80;;;3.00;99.90;;;;;;5023212;28;20405;-78
2021/03/14 05:44:20;;;;;;;3.88;1.00;;;3.00;99.90;;;;;;5029333;28;20034;-78
2021/03/14 05:46:45;;;;;;;3.15;0.73;;;3.10;99.90;;;;;;5031275;28;20486;-78
2021/03/14 05:49:11;;;;;;;4.40;1.13;;;3.10;99.90;;;;;;5034283;28;20068;-78
2021/03/14 05:51:42;;;;;;;3.88;0.65;;;3.10;99.90;;;;;;5030290;28;20277;-78
2021/03/14 05:54:11;;;;;;;2.47;0.80;;;3.10;99.90;;;;;;5030360;28;20115;-78
2021/03/14 05:56:42;;;;;;;1.75;0.80;;;3.10;99.90;;;;;;5030203;28;20037;-78
2021/03/14 05:59:11;;;;;;;4.65;0.77;;;3.20;99.90;;;;;;5034688;28;20045;-78
2021/03/14 06:01:38;;;;;;;7.45;1.10;;;3.20;99.90;;;;;;5035660;28;20502;-77
2021/03/14 06:04:06;;;;;;;6.32;0.90;;;3.20;99.90;;;;;;5031308;28;20038;-78
2021/03/14 06:06:32;;;;;;;4.72;1.13;;;3.20;99.90;;;;;;5030682;28;20124;-78
2021/03/14 06:08:57;;;;;;;3.85;1.23;;;3.30;99.90;;;;;;5028882;28;20133;-78
2021/03/14 06:11:23;;;;;;;7.97;1.20;;;3.30;99.90;;;;;;5030825;28;20523;-78
2021/03/14 06:13:49;;;;;;;7.82;1.50;;;3.40;99.90;;;;;;5031746;28;20571;-78
2021/03/14 06:16:15;;;;;;;2.60;1.10;;;3.50;99.90;;;;;;5028283;28;20061;-78
2021/03/14 06:18:42;;;;;;;10.32;1.88;;;3.50;99.90;;;;;;5034315;28;20072;-78
2021/03/14 06:21:27;;;;;;;5.95;1.65;;;3.60;99.90;;;;;;5030153;28;20038;-78
2021/03/14 06:24:03;;;;;;;;;;;3.60;99.90;;;;;;5034546;28;20052;-77
2021/03/14 06:26:40;;;;;;;6.00;1.65;;;3.60;99.90;;;;;;5028331;28;19933;-77
2021/03/14 06:29:18;;;;;;;19.55;1.80;;;3.60;99.90;;;;;;5039267;28;20918;-78
2021/03/14 06:32:03;;;;;;;2.40;1.08;;;3.60;99.90;;;;;;5033638;28;20055;-78
2021/03/14 06:34:36;;;;;;;;;;;3.60;99.90;;;;;;5034657;28;20111;-78
2021/03/14 06:37:07;;;;;;;6.65;1.33;;;3.60;99.90;;;;;;5027342;28;20341;-77
2021/03/14 06:39:34;;;;;;;2.47;0.98;;;3.70;99.90;;;;;;5040974;28;20022;-77
2021/03/14 06:42:00;;;;;;;9.95;1.58;;;3.70;99.90;;;;;;5040527;28;20033;-77
2021/03/14 06:44:30;;;;;;;6.75;1.48;;;3.70;99.90;;;;;;5034018;28;20084;-78
2021/03/14 06:46:57;;;;;;;5.90;1.33;;;3.80;99.90;;;;;;5031749;28;20048;-78
2021/03/14 06:49:25;;;;;;;4.88;1.10;;;3.80;99.90;;;;;;5031648;28;20037;-78
2021/03/14 06:51:55;;;;;;;11.85;1.65;;;3.80;99.90;;;;;;5037676;28;20060;-79
2021/03/14 06:54:33;;;;;;;4.72;1.70;;;3.80;99.90;;;;;;5032443;28;20037;-78
2021/03/14 06:57:20;;;;;;;5.70;1.33;;;3.80;99.90;;;;;;5034078;28;20635;-79
2021/03/14 06:59:50;;;;;;;10.00;1.23;;;3.90;99.90;;;;;;5033442;28;20048;-79
2021/03/14 07:02:20;;;;;;;13.55;1.77;;;3.90;99.90;;;;;;5031809;28;20128;-78
2021/03/14 07:04:53;;;;;;;10.75;2.00;;;4.00;99.90;;;;;;5032597;28;20045;-77
2021/03/14 07:07:41;;;;;;;2.45;1.00;;;4.00;99.90;;;;;;5020421;28;20037;-78
2021/03/14 07:10:09;;;;;;;6.05;1.63;;;4.20;99.90;;;;;;5028182;28;20499;-78
2021/03/14 07:12:35;;;;;;;6.60;1.25;;;4.30;99.90;;;;;;5032054;28;20079;-78
2021/03/14 07:15:19;;;;;;;3.90;0.90;;;4.30;99.90;;;;;;5031343;28;20030;-79
2021/03/14 07:17:56;;;;;;;6.95;1.20;;;4.60;99.90;;;;;;5031596;28;20170;-78
2021/03/14 07:20:27;;;;;;;3.15;1.27;;;5.20;99.90;;;;;;5032336;28;20052;-79
2021/03/14 07:23:04;;;;;;;5.53;1.20;;;5.20;99.90;;;;;;5032581;28;20040;-79
2021/03/14 07:25:30;;;;;;;7.15;1.20;;;5.20;99.90;;;;;;5031396;28;20037;-78
2021/03/14 07:27:56;;;;;;;5.20;1.27;;;5.10;99.90;;;;;;5033550;28;20059;-78
2021/03/14 07:30:24;;;;;;;3.10;1.30;;;5.10;99.90;;;;;;5030304;28;20034;-79
2021/03/14 07:32:51;;;;;;;8.75;1.00;;;5.20;99.90;;;;;;5032111;28;20033;-79
2021/03/14 07:35:17;;;;;;;4.45;1.10;;;5.40;99.90;;;;;;5031706;28;20120;-78
2021/03/14 07:37:44;;;;;;;6.38;0.98;;;5.50;99.90;;;;;;5035995;28;20118;-78
2021/03/14 07:40:11;;;;;;;2.50;1.05;;;5.60;99.90;;;;;;5031002;28;20418;-78
2021/03/14 07:42:38;;;;;;;4.60;1.20;;;5.40;99.90;;;;;;5034944;28;20043;-79
2021/03/14 07:45:08;;;;;;;6.97;1.33;;;5.40;99.90;;;;;;5033449;28;20172;-78
2021/03/14 07:47:37;;;;;;;10.60;1.40;;;5.40;99.90;;;;;;5032013;28;20037;-78
2021/03/14 07:50:09;;;;;;;4.40;1.25;;;5.30;99.90;;;;;;5030911;28;22474;-80
2021/03/14 07:52:38;;;;;;;5.65;1.13;;;5.10;99.90;;;;;;5034552;28;20091;-79
2021/03/14 07:55:08;;;;;;;4.95;1.20;;;5.00;99.90;;;;;;5032576;28;20403;-78
2021/03/14 07:57:33;;;;;;;6.60;1.60;;;4.90;99.90;;;;;;5033458;28;20426;-78
2021/03/14 08:00:23;;;;;;;14.85;1.73;;;4.80;99.90;;;;;;5032305;28;20060;-79
2021/03/14 08:03:06;;;;;;;7.18;1.50;;;4.80;99.90;;;;;;5040288;28;20037;-81
2021/03/14 08:05:49;;;;;;;4.25;1.52;;;4.80;99.90;;;;;;5023649;28;20061;-80
2021/03/14 08:08:26;;;;;;;9.07;1.05;;;4.70;99.90;;;;;;5031559;28;20033;-81
2021/03/14 08:10:54;;;;;;;1.83;1.20;;;4.80;99.90;;;;;;5032430;28;20909;-80
2021/03/14 08:13:32;;;;;;;3.38;0.88;;;4.80;99.90;;;;;;5033200;28;20297;-81
2021/03/14 08:16:04;;;;;;;6.40;0.88;;;4.90;99.90;;;;;;5029796;28;20112;-80
2021/03/14 08:18:42;;;;;;;5.03;0.80;;;5.00;99.90;;;;;;5034015;28;20103;-80
2021/03/14 08:21:20;;;;;;;9.63;1.75;;;5.00;99.90;;;;;;5032261;28;20526;-82
2021/03/14 08:23:57;;;;;;;9.85;1.60;;;5.10;99.90;;;;;;5031425;28;20029;-83
2021/03/14 08:26:25;;;;;;;9.02;1.00;;;5.10;99.90;;;;;;5033311;28;20060;-82
2021/03/14 08:28:58;;;;;;;9.73;0.90;;;5.10;99.90;;;;;;5031533;28;20083;-82
2021/03/14 08:31:49;;;;;;;2.60;1.00;;;4.90;99.90;;;;;;5022087;28;20576;-81
2021/03/14 08:34:29;;;;;;;10.15;0.95;;;5.10;99.90;;;;;;5038011;28;20037;-82
2021/03/14 08:36:56;;;;;;;8.73;1.30;;;5.40;99.90;;;;;;5032758;28;20039;-79
2021/03/14 08:39:30;;;;;;;6.10;0.95;;;6.00;99.90;;;;;;5027926;28;20037;-81
2021/03/14 08:42:01;;;;;;;11.30;1.65;;;6.60;99.90;;;;;;5029470;28;20044;-79
2021/03/14 08:44:46;;;;;;;4.60;1.00;;;6.60;99.90;;;;;;5033590;28;20409;-80
2021/03/14 08:47:21;;;;;;;2.53;0.77;;;6.50;99.90;;;;;;5029213;28;20310;-81
2021/03/14 08:49:55;;;;;;;2.88;1.00;;;6.30;98.10;;;;;;5031035;28;20042;-80
2021/03/14 08:52:22;;;;;;;4.60;0.90;;;5.90;98.40;;;;;;5029682;28;20037;-80
2021/03/14 08:54:54;;;;;;;4.90;0.82;;;5.90;99.90;;;;;;5030103;28;20044;-80
2021/03/14 08:57:20;;;;;;;5.28;0.98;;;5.90;98.00;;;;;;5033438;28;20037;-79
2021/03/14 08:59:51;;;;;;;4.05;0.70;;;5.90;99.90;;;;;;5032722;28;20044;-81
2021/03/14 09:02:23;;;;;;;6.05;0.82;;;5.90;97.30;;;;;;5024271;28;20033;-81
2021/03/14 09:04:50;;;;;;;4.75;0.80;;;5.90;98.30;;;;;;5029519;28;20041;-81
2021/03/14 09:07:16;;;;;;;5.93;0.85;;;5.80;96.40;;;;;;5030012;28;20116;-80
2021/03/14 09:09:43;;;;;;;4.78;0.70;;;5.90;96.80;;;;;;5028230;28;20076;-80
2021/03/14 09:12:14;;;;;;;5.68;1.17;;;5.90;95.40;;;;;;5028908;28;20124;-80
2021/03/14 09:14:48;;;;;;;4.80;0.80;;;6.20;95.80;;;;;;5029232;28;20069;-79
2021/03/14 09:17:16;;;;;;;2.55;1.02;;;6.60;92.30;;;;;;5028959;28;20057;-80
2021/03/14 09:19:51;;;;;;;5.90;1.10;;;7.10;91.60;;;;;;5032812;28;20037;-80
2021/03/14 09:22:22;;;;;;;2.35;0.77;;;7.10;91.10;;;;;;5050640;28;20067;-80
2021/03/14 09:24:52;;;;;;;7.65;1.00;;;8.60;79.50;;;;;;5033636;28;20045;-81
2021/03/14 09:27:19;;;;;;;2.35;0.93;;;9.50;75.50;;;;;;5030815;28;20041;-80
2021/03/14 09:29:49;;;;;;;5.38;1.10;;;9.70;69.60;;;;;;5031404;28;20103;-80
2021/03/14 09:32:19;;;;;;;3.17;0.82;;;11.00;67.50;;;;;;5031614;28;20073;-81
2021/03/14 09:34:45;;;;;;;6.32;1.48;;;10.90;58.00;;;;;;5028450;28;20041;-81
2021/03/14 09:37:11;;;;;;;11.43;1.90;;;10.70;60.10;;;;;;5038009;28;20047;-80
2021/03/14 09:39:37;;;;;;;5.18;1.02;;;11.90;59.80;;;;;;5032423;28;20037;-81
2021/03/14 09:42:03;;;;;;;4.95;1.00;;;12.90;54.10;;;;;;5034195;28;20029;-80
2021/03/14 09:44:29;;;;;;;7.63;1.27;;;12.10;48.30;;;;;;5034974;28;20041;-81
2021/03/14 09:46:56;;;;;;;6.53;0.90;;;11.50;53.00;;;;;;5031631;28;20037;-80
2021/03/14 09:49:22;;;;;;;4.13;0.60;;;9.50;57.50;;;;;;5029314;28;20561;-80
2021/03/14 09:51:57;;;;;;;2.17;0.50;;;9.60;66.10;;;;;;5042208;28;20043;-81
2021/03/14 09:54:25;;;;;;;5.97;0.80;;;8.70;66.30;;;;;;5033045;28;20033;-82
2021/03/14 09:56:55;;;;;;;11.18;0.93;;;8.30;69.70;;;;;;5033285;28;20110;-81
2021/03/14 09:59:25;;;;;;;3.97;0.90;;;7.90;72.30;;;;;;5027745;28;20102;-81
2021/03/14 10:01:52;;;;;;;6.47;0.95;;;7.50;74.40;;;;;;5030944;28;20048;-81
2021/03/14 10:04:18;;;;;;;3.97;0.68;;;7.30;75.00;;;;;;5026808;28;20060;-81
2021/03/14 10:06:44;;;;;;;3.42;0.90;;;7.30;77.40;;;;;;5028199;28;20394;-81
2021/03/14 10:09:20;;;;;;;3.42;0.73;;;7.20;78.20;;;;;;5027273;28;20099;-81
2021/03/14 10:11:47;;;;;;;2.63;0.90;;;7.00;77.30;;;;;;5029515;28;20041;-81
2021/03/14 10:14:18;;;;;;;2.85;0.82;;;6.80;78.50;;;;;;5027501;28;20115;-80
2021/03/14 10:16:46;;;;;;;0.98;0.60;;;7.00;82.50;;;;;;5026229;28;20124;-80
2021/03/14 10:19:12;;;;;;;7.63;0.90;;;6.90;81.00;;;;;;5028587;28;20041;-81
2021/03/14 10:21:46;;;;;;;4.57;0.90;;;6.90;81.60;;;;;;5034817;28;20075;-80
2021/03/14 10:24:22;;;;;;;4.07;1.05;;;6.90;81.30;;;;;;5043504;28;20743;-79
2021/03/14 10:26:50;;;;;;;5.53;0.80;;;7.00;81.90;;;;;;5017771;28;20046;-81
2021/03/14 10:29:16;;;;;;;4.55;0.80;;;7.20;82.10;;;;;;5029415;28;20037;-81
2021/03/14 10:31:41;;;;;;;2.63;1.27;;;7.10;80.20;;;;;;5033096;28;20132;-81
2021/03/14 10:34:08;;;;;;;4.38;0.80;;;7.00;81.50;;;;;;5029762;28;20494;-81
2021/03/14 10:36:35;;;;;;;3.22;0.85;;;6.90;80.80;;;;;;5027851;28;20049;-81
2021/03/14 10:39:03;;;;;;;8.45;1.20;;;7.20;84.50;;;;;;5031296;28;20386;-80
2021/03/14 10:41:28;;;;;;;9.90;1.20;;;7.20;82.70;;;;;;5031959;28;20037;-80
2021/03/14 10:44:01;;;;;;;7.20;1.13;;;7.20;81.10;;;;;;5027763;28;20052;-80
2021/03/14 10:46:39;;;;;;;5.68;1.02;;;7.20;80.20;;;;;;5030197;28;20528;-80
2021/03/14 10:49:15;;;;;;;3.65;0.77;;;7.10;80.60;;;;;;5034046;28;20504;-80
2021/03/14 10:51:43;;;;;;;5.85;1.20;;;7.10;75.40;;;;;;5033004;28;20043;-81
2021/03/14 10:54:11;;;;;;;5.65;0.68;;;7.30;72.60;;;;;;5028571;28;20770;-80
2021/03/14 10:56:42;;;;;;;3.35;0.82;;;7.80;72.50;;;;;;5030308;28;20037;-80
2021/03/14 10:59:21;;;;;;;2.78;0.98;;;7.90;66.00;;;;;;5031840;28;20117;-80
2021/03/14 11:01:48;;;;;;;3.03;0.82;;;9.20;61.20;;;;;;5031451;28;20037;-80
2021/03/14 11:04:14;;;;;;;1.75;0.65;;;10.50;56.80;;;;;;5028691;28;20030;-80
2021/03/14 11:06:39;;;;;;;7.97;1.15;;;9.60;57.40;;;;;;5028905;28;20045;-80
2021/03/14 11:09:08;;;;;;;3.55;0.80;;;9.10;55.50;;;;;;5022283;28;20049;-81
2021/03/14 11:11:42;;;;;;;6.68;0.77;;;8.40;54.80;;;;;;5023588;28;20465;-81
2021/03/14 11:14:34;;;;;;;3.03;0.80;;;8.10;60.50;;;;;;5032278;28;20029;-81
2021/03/14 11:17:07;;;;;;;5.68;1.10;;;8.20;62.60;;;;;;5033735;28;20071;-80
2021/03/14 11:19:33;;;;;;;2.53;0.52;;;8.10;62.00;;;;;;5028639;28;20036;-81
2021/03/14 11:21:59;;;;;;;2.60;0.73;;;7.90;61.90;;;;;;5029532;28;20045;-80
2021/03/14 11:24:24;;;;;;;3.05;0.77;;;7.90;62.80;;;;;;5031761;28;20106;-80
2021/03/14 11:26:50;;;;;;;6.40;0.93;;;7.90;65.10;;;;;;5030448;28;20056;-80
2021/03/14 11:29:16;;;;;;;3.60;0.88;;;7.90;63.10;;;;;;5030467;28;20044;-80
2021/03/14 11:31:41;;;;;;;4.85;0.75;;;8.50;60.60;;;;;;5028105;28;20040;-80
2021/03/14 11:34:07;;;;;;;2.92;0.90;;;9.50;59.90;;;;;;5027397;28;20036;-81
2021/03/14 11:36:32;;;;;;;3.08;0.93;;;9.50;53.10;;;;;;5031858;28;20080;-80
2021/03/14 11:38:58;;;;;;;9.93;0.90;;;9.40;54.60;;;;;;5028747;28;20037;-81
2021/03/14 11:41:23;;;;;;;3.55;0.82;;;8.80;53.80;;;;;;5032090;28;20029;-80
2021/03/14 11:43:49;;;;;;;1.85;0.50;;;8.60;55.60;;;;;;5030133;28;20044;-80
2021/03/14 11:46:15;;;;;;;5.55;1.10;;;8.60;54.80;;;;;;5028434;28;20029;-80
2021/03/14 11:48:40;;;;;;;4.55;1.00;;;8.40;56.00;;;;;;5030238;28;20052;-80
2021/03/14 11:51:06;;;;;;;1.75;0.70;;;8.30;57.90;;;;;;5028223;28;20068;-80
2021/03/14 11:53:32;;;;;;;4.90;0.65;;;8.40;57.80;;;;;;5026690;28;20025;-80
2021/03/14 11:55:59;;;;;;;3.03;1.00;;;8.30;57.00;;;;;;5029103;28;20041;-80
2021/03/14 11:58:24;;;;;;;5.60;0.75;;;8.20;57.90;;;;;;5027069;28;20037;-79
2021/03/14 12:00:50;;;;;;;4.80;0.80;;;8.30;60.50;;;;;;5027553;28;20435;-79
2021/03/14 12:03:15;;;;;;;7.60;0.93;;;8.30;60.40;;;;;;5040232;28;20127;-79
2021/03/14 12:05:41;;;;;;;6.95;1.10;;;8.40;60.60;;;;;;5032035;28;20383;-80
2021/03/14 12:08:09;;;;;;;5.88;1.23;;;8.50;62.00;;;;;;5033353;28;20044;-80
2021/03/14 12:10:34;;;;;;;6.10;0.68;;;8.20;60.60;;;;;;5030068;28;20060;-81
2021/03/14 12:13:00;;;;;;;8.77;0.90;;;8.00;62.60;;;;;;5031208;28;20065;-81
2021/03/14 12:15:26;;;;;;;3.15;0.75;;;7.80;64.60;;;;;;5029228;28;20559;-80
2021/03/14 12:17:51;;;;;;;3.42;0.85;;;7.60;66.70;;;;;;5027165;28;20448;-79
2021/03/14 12:20:17;;;;;;;7.00;0.90;;;7.30;66.30;;;;;;5028888;28;20033;-82
2021/03/14 12:22:42;;;;;;;5.43;1.05;;;7.30;72.60;;;;;;5029342;28;20143;-80
2021/03/14 12:25:08;;;;;;;1.67;0.75;;;7.00;73.90;;;;;;5028843;28;20029;-80
2021/03/14 12:27:34;;;;;;;4.00;0.90;;;7.00;79.60;;;;;;5027813;28;20087;-80
2021/03/14 12:29:59;;;;;;;4.95;0.90;;;7.00;81.10;;;;;;5026552;28;20045;-80
2021/03/14 12:32:25;;;;;;;5.45;1.00;;;6.90;80.70;;;;;;5028240;28;20060;-81
2021/03/14 12:34:51;;;;;;;2.70;0.90;;;6.80;85.00;;;;;;5026295;28;20102;-79
2021/03/14 12:37:16;;;;;;;6.70;0.95;;;6.40;88.40;;;;;;5027297;28;20052;-78
2021/03/14 12:39:42;;;;;;;6.22;1.10;;;6.10;96.20;;;;;;5027884;28;20609;-78
2021/03/14 12:42:07;;;;;;;5.63;1.27;;;5.90;99.90;;;;;;5028157;28;20068;-79
2021/03/14 12:44:33;;;;;;;2.78;0.80;;;5.80;99.90;;;;;;5028063;28;20080;-78
2021/03/14 12:46:59;;;;;;;11.27;1.10;;;5.60;99.90;;;;;;5028546;28;20112;-77
2021/03/14 12:49:25;;;;;;;4.53;1.20;;;5.60;99.90;;;;;;5029353;28;20560;-78
2021/03/14 12:51:50;;;;;;;3.78;0.95;;;5.50;99.90;;;;;;5027796;28;20120;-79
2021/03/14 12:54:16;;;;;;;10.90;1.40;;;5.50;99.90;;;;;;5032584;28;20044;-80
2021/03/14 12:56:42;;;;;;;8.00;1.40;;;5.40;99.90;;;;;;5030530;28;20045;-80
2021/03/14 12:59:07;;;;;;;8.35;1.00;;;5.30;99.90;;;;;;5027131;28;20030;-78
2021/03/14 13:01:33;;;;;;;8.18;1.50;;;5.20;99.90;;;;;;5030944;28;20087;-78
2021/03/14 13:03:59;;;;;;;6.32;1.10;;;5.20;99.90;;;;;;5026839;28;20066;-78